Flight Track Log - Related Links

Times and Time Zones

All times are in EDT time to prevent confusion due to time zone crossing. See the ASQ4283 flight status page for this flight to view local times or setup timezone preferences in your user account.

Time Position Orientation Groundspeed Altitude Reporting Facility
EDT Latitude Longitude Course Direction KTS MPH feet Rate Location/Type
Wed 07:34:40 PM 41.9333 -87.9500 270° West 178 205 3,300  Level Chicago TRACON
Wed 07:35:46 PM 41.9333 -88.0333 270° West 234 269 4,800 1,660 Climbing Chicago TRACON
Wed 07:37:00 PM 41.9667 -88.3528 270° West  Level FlightAware Approximate
Wed 07:37:01 PM 41.9283 -88.1494 267° West 250 288 7,200  Level Chicago Center
Wed 07:38:00 PM 41.9667 -88.4660 270° West  Level FlightAware Approximate
Wed 07:38:03 PM 41.9194 -88.2447 263° West 258 297 9,100  Level Chicago Center
Wed 07:39:00 PM 41.9667 -88.5792 270° West  Level FlightAware Approximate
Wed 07:39:05 PM 41.9008 -88.3447 256° West 284 327 10,200  Level Chicago Center
Wed 07:40:00 PM 41.9667 -88.6878 270° West  Level FlightAware Approximate
Wed 07:40:07 PM 41.8736 -88.4856 255° West 330 380 11,200  Level Chicago Center
Wed 07:41:09 PM 41.8483 -88.6072 254° West 340 391 12,000 384 Climbing Chicago Center
Wed 07:42:12 PM 41.8217 -88.7381 255° West 366 421 12,000  Level Chicago Center
Wed 07:43:14 PM 41.7950 -88.8703 255° West 371 427 12,000  Level Chicago Center
Wed 07:44:16 PM 41.7642 -89.0217 255° West 357 411 12,000  Level Chicago Center
Wed 07:45:18 PM 41.7389 -89.1472 255° West 353 406 12,000  Level Chicago Center
Wed 07:46:20 PM 41.7117 -89.2783 254° West 367 422 12,000  Level Chicago Center
Wed 07:47:22 PM 41.6839 -89.4114 254° West 374 430 12,000  Level Chicago Center
Wed 07:48:24 PM 41.6522 -89.5628 254° West 375 432 12,000 -387 Level Chicago Center
Wed 07:49:26 PM 41.6236 -89.6961 254° West 376 433 11,200 -480 Descending Chicago Center
Wed 07:50:29 PM 41.5964 -89.8250 254° West 366 421 11,000 -96 Descending Chicago Center
Wed 07:51:31 PM 41.5694 -89.9511 254° West 358 412 11,000 -97 Level Chicago Center
Wed 07:52:33 PM 41.5411 -90.0828 254° West 366 421 10,800 -871 Descending Chicago Center
Wed 07:53:35 PM 41.5017 -90.2053 247° West 310 357 9,200 -2,371 Descending Chicago Center
Wed 07:54:37 PM 41.4733 -90.2944 247° West 275 316 5,900 -3,194 Descending Chicago Center

Login

Don't have an account? Register now (free) for customized features, flight alerts, and more!